sensor_id;sensor_type;location;lat;lon;timestamp;P1;durP1;ratioP1;P2;durP2;ratioP2
27979;SDS011;15315;50.836;4.430;2022-08-19T00:09:22;28.27;;;24.55;;
27979;SDS011;15315;50.836;4.430;2022-08-19T00:19:24;38.50;;;30.60;;
27979;SDS011;15315;50.836;4.430;2022-08-19T00:29:24;56.00;;;38.53;;
27979;SDS011;15315;50.836;4.430;2022-08-19T00:39:25;74.10;;;46.85;;
27979;SDS011;15315;50.836;4.430;2022-08-19T00:49:27;72.50;;;47.85;;
27979;SDS011;15315;50.836;4.430;2022-08-19T00:59:41;83.00;;;54.25;;
27979;SDS011;15315;50.836;4.430;2022-08-19T01:09:46;85.28;;;54.08;;
27979;SDS011;15315;50.836;4.430;2022-08-19T01:19:46;70.35;;;48.63;;
27979;SDS011;15315;50.836;4.430;2022-08-19T01:29:47;69.75;;;47.22;;
27979;SDS011;15315;50.836;4.430;2022-08-19T01:39:47;53.10;;;38.53;;
27979;SDS011;15315;50.836;4.430;2022-08-19T01:49:48;48.35;;;34.15;;
27979;SDS011;15315;50.836;4.430;2022-08-19T01:59:48;43.45;;;31.40;;
27979;SDS011;15315;50.836;4.430;2022-08-19T02:09:50;41.92;;;28.02;;
27979;SDS011;15315;50.836;4.430;2022-08-19T02:19:50;33.63;;;26.42;;
27979;SDS011;15315;50.836;4.430;2022-08-19T02:29:51;33.60;;;21.92;;
27979;SDS011;15315;50.836;4.430;2022-08-19T02:39:52;35.10;;;27.35;;
27979;SDS011;15315;50.836;4.430;2022-08-19T02:49:53;36.93;;;26.67;;
27979;SDS011;15315;50.836;4.430;2022-08-19T02:59:53;30.00;;;22.90;;
27979;SDS011;15315;50.836;4.430;2022-08-19T03:09:54;31.42;;;22.98;;
27979;SDS011;15315;50.836;4.430;2022-08-19T03:19:54;32.58;;;19.75;;
27979;SDS011;15315;50.836;4.430;2022-08-19T03:29:55;34.65;;;23.83;;
27979;SDS011;15315;50.836;4.430;2022-08-19T03:39:55;35.17;;;22.70;;
27979;SDS011;15315;50.836;4.430;2022-08-19T03:49:56;34.00;;;21.55;;
27979;SDS011;15315;50.836;4.430;2022-08-19T03:59:56;40.83;;;26.23;;
27979;SDS011;15315;50.836;4.430;2022-08-19T04:09:56;37.42;;;26.05;;
27979;SDS011;15315;50.836;4.430;2022-08-19T04:19:57;39.88;;;25.20;;
27979;SDS011;15315;50.836;4.430;2022-08-19T04:29:57;34.15;;;23.65;;
27979;SDS011;15315;50.836;4.430;2022-08-19T04:39:57;37.08;;;20.88;;
27979;SDS011;15315;50.836;4.430;2022-08-19T04:50:16;32.25;;;19.23;;
27979;SDS011;15315;50.836;4.430;2022-08-19T05:00:17;30.65;;;17.20;;
27979;SDS011;15315;50.836;4.430;2022-08-19T05:10:17;29.92;;;17.25;;
27979;SDS011;15315;50.836;4.430;2022-08-19T05:20:18;35.90;;;18.33;;
27979;SDS011;15315;50.836;4.430;2022-08-19T05:30:37;33.97;;;20.50;;
27979;SDS011;15315;50.836;4.430;2022-08-19T05:40:38;36.33;;;23.10;;
27979;SDS011;15315;50.836;4.430;2022-08-19T05:50:40;44.28;;;22.10;;
27979;SDS011;15315;50.836;4.430;2022-08-19T06:00:42;32.63;;;19.08;;
27979;SDS011;15315;50.836;4.430;2022-08-19T06:10:43;32.92;;;16.95;;
27979;SDS011;15315;50.836;4.430;2022-08-19T06:20:44;27.83;;;14.90;;
27979;SDS011;15315;50.836;4.430;2022-08-19T06:30:44;29.90;;;11.60;;
27979;SDS011;15315;50.836;4.430;2022-08-19T06:40:44;27.15;;;10.88;;
27979;SDS011;15315;50.836;4.430;2022-08-19T06:50:45;19.08;;;9.57;;
27979;SDS011;15315;50.836;4.430;2022-08-19T07:00:45;17.67;;;9.05;;
27979;SDS011;15315;50.836;4.430;2022-08-19T07:10:45;23.27;;;8.85;;
27979;SDS011;15315;50.836;4.430;2022-08-19T07:20:46;23.00;;;9.32;;
27979;SDS011;15315;50.836;4.430;2022-08-19T07:30:48;15.38;;;9.30;;
27979;SDS011;15315;50.836;4.430;2022-08-19T07:40:50;18.70;;;8.45;;
27979;SDS011;15315;50.836;4.430;2022-08-19T07:50:52;15.20;;;7.00;;
27979;SDS011;15315;50.836;4.430;2022-08-19T08:00:54;13.57;;;6.78;;
27979;SDS011;15315;50.836;4.430;2022-08-19T08:10:54;13.40;;;7.85;;
27979;SDS011;15315;50.836;4.430;2022-08-19T08:20:55;15.27;;;7.13;;
27979;SDS011;15315;50.836;4.430;2022-08-19T08:30:56;10.77;;;6.22;;
27979;SDS011;15315;50.836;4.430;2022-08-19T08:40:59;9.07;;;6.35;;
27979;SDS011;15315;50.836;4.430;2022-08-19T08:51:10;13.60;;;6.20;;
27979;SDS011;15315;50.836;4.430;2022-08-19T09:01:18;15.25;;;6.45;;
27979;SDS011;15315;50.836;4.430;2022-08-19T09:11:28;10.30;;;6.55;;
27979;SDS011;15315;50.836;4.430;2022-08-19T09:21:33;11.83;;;6.00;;
27979;SDS011;15315;50.836;4.430;2022-08-19T09:31:34;12.10;;;6.53;;
27979;SDS011;15315;50.836;4.430;2022-08-19T09:41:35;11.45;;;6.25;;
27979;SDS011;15315;50.836;4.430;2022-08-19T09:51:35;12.52;;;5.97;;
27979;SDS011;15315;50.836;4.430;2022-08-19T10:01:36;9.98;;;5.70;;
27979;SDS011;15315;50.836;4.430;2022-08-19T10:11:39;8.23;;;5.93;;
27979;SDS011;15315;50.836;4.430;2022-08-19T10:21:40;6.85;;;4.68;;
27979;SDS011;15315;50.836;4.430;2022-08-19T10:31:41;8.68;;;5.38;;
27979;SDS011;15315;50.836;4.430;2022-08-19T10:41:41;10.82;;;6.78;;
27979;SDS011;15315;50.836;4.430;2022-08-19T10:51:43;10.98;;;6.78;;
27979;SDS011;15315;50.836;4.430;2022-08-19T11:02:03;12.73;;;7.85;;
27979;SDS011;15315;50.836;4.430;2022-08-19T11:12:05;12.77;;;9.17;;
27979;SDS011;15315;50.836;4.430;2022-08-19T11:22:08;13.85;;;7.65;;
27979;SDS011;15315;50.836;4.430;2022-08-19T11:32:09;18.88;;;9.77;;
27979;SDS011;15315;50.836;4.430;2022-08-19T11:42:11;21.80;;;10.90;;
27979;SDS011;15315;50.836;4.430;2022-08-19T11:52:30;14.98;;;9.70;;
27979;SDS011;15315;50.836;4.430;2022-08-19T12:02:30;18.17;;;7.95;;
27979;SDS011;15315;50.836;4.430;2022-08-19T12:12:31;11.55;;;6.63;;
27979;SDS011;15315;50.836;4.430;2022-08-19T12:22:32;11.32;;;6.72;;
27979;SDS011;15315;50.836;4.430;2022-08-19T12:32:32;9.68;;;5.72;;
27979;SDS011;15315;50.836;4.430;2022-08-19T12:42:33;13.32;;;5.07;;
27979;SDS011;15315;50.836;4.430;2022-08-19T12:52:35;9.23;;;4.43;;
27979;SDS011;15315;50.836;4.430;2022-08-19T13:02:37;8.93;;;3.43;;
27979;SDS011;15315;50.836;4.430;2022-08-19T13:12:38;6.65;;;2.95;;
27979;SDS011;15315;50.836;4.430;2022-08-19T13:22:41;4.40;;;3.10;;
27979;SDS011;15315;50.836;4.430;2022-08-19T13:32:42;3.45;;;2.20;;
27979;SDS011;15315;50.836;4.430;2022-08-19T13:43:02;4.13;;;2.00;;
27979;SDS011;15315;50.836;4.430;2022-08-19T13:53:04;5.97;;;2.30;;
27979;SDS011;15315;50.836;4.430;2022-08-19T14:03:05;11.07;;;2.87;;
27979;SDS011;15315;50.836;4.430;2022-08-19T14:13:05;6.07;;;2.63;;
27979;SDS011;15315;50.836;4.430;2022-08-19T14:23:06;6.85;;;2.00;;
27979;SDS011;15315;50.836;4.430;2022-08-19T14:33:06;6.10;;;2.60;;
27979;SDS011;15315;50.836;4.430;2022-08-19T14:43:08;6.95;;;2.00;;
27979;SDS011;15315;50.836;4.430;2022-08-19T14:53:08;7.90;;;1.77;;
27979;SDS011;15315;50.836;4.430;2022-08-19T15:03:08;1.98;;;1.50;;
27979;SDS011;15315;50.836;4.430;2022-08-19T15:13:09;2.40;;;1.60;;
27979;SDS011;15315;50.836;4.430;2022-08-19T15:23:09;4.53;;;1.67;;
27979;SDS011;15315;50.836;4.430;2022-08-19T15:33:10;3.05;;;1.73;;
27979;SDS011;15315;50.836;4.430;2022-08-19T15:43:15;7.07;;;2.10;;
27979;SDS011;15315;50.836;4.430;2022-08-19T15:53:17;5.43;;;2.53;;
27979;SDS011;15315;50.836;4.430;2022-08-19T16:03:17;8.05;;;2.03;;
27979;SDS011;15315;50.836;4.430;2022-08-19T16:13:36;7.05;;;2.42;;
27979;SDS011;15315;50.836;4.430;2022-08-19T16:23:38;4.20;;;2.60;;
27979;SDS011;15315;50.836;4.430;2022-08-19T16:33:39;6.78;;;2.85;;
27979;SDS011;15315;50.836;4.430;2022-08-19T16:43:40;3.75;;;2.65;;
27979;SDS011;15315;50.836;4.430;2022-08-19T16:53:41;12.23;;;3.95;;
27979;SDS011;15315;50.836;4.430;2022-08-19T17:03:43;8.45;;;3.70;;
27979;SDS011;15315;50.836;4.430;2022-08-19T17:13:45;8.00;;;3.65;;
27979;SDS011;15315;50.836;4.430;2022-08-19T17:23:46;12.77;;;4.22;;
27979;SDS011;15315;50.836;4.430;2022-08-19T17:33:47;10.25;;;4.50;;
27979;SDS011;15315;50.836;4.430;2022-08-19T17:43:48;14.02;;;5.88;;
27979;SDS011;15315;50.836;4.430;2022-08-19T17:53:50;13.25;;;6.63;;
27979;SDS011;15315;50.836;4.430;2022-08-19T18:03:51;11.93;;;5.45;;
27979;SDS011;15315;50.836;4.430;2022-08-19T18:13:52;11.73;;;5.57;;
27979;SDS011;15315;50.836;4.430;2022-08-19T18:23:52;8.40;;;4.90;;
27979;SDS011;15315;50.836;4.430;2022-08-19T18:33:52;8.85;;;4.80;;
27979;SDS011;15315;50.836;4.430;2022-08-19T18:43:53;12.57;;;4.95;;
27979;SDS011;15315;50.836;4.430;2022-08-19T18:54:12;8.70;;;4.85;;
27979;SDS011;15315;50.836;4.430;2022-08-19T19:04:13;7.72;;;4.90;;
27979;SDS011;15315;50.836;4.430;2022-08-19T19:14:14;4.97;;;4.47;;
27979;SDS011;15315;50.836;4.430;2022-08-19T19:24:28;8.73;;;6.20;;
27979;SDS011;15315;50.836;4.430;2022-08-19T19:34:31;10.43;;;4.85;;
27979;SDS011;15315;50.836;4.430;2022-08-19T19:44:32;6.72;;;4.20;;
27979;SDS011;15315;50.836;4.430;2022-08-19T19:54:33;11.53;;;4.77;;
27979;SDS011;15315;50.836;4.430;2022-08-19T20:04:34;6.45;;;4.32;;
27979;SDS011;15315;50.836;4.430;2022-08-19T20:14:36;12.05;;;6.22;;
27979;SDS011;15315;50.836;4.430;2022-08-19T20:24:37;8.48;;;3.90;;
27979;SDS011;15315;50.836;4.430;2022-08-19T20:34:39;7.85;;;5.03;;
27979;SDS011;15315;50.836;4.430;2022-08-19T20:44:39;3.40;;;2.20;;
27979;SDS011;15315;50.836;4.430;2022-08-19T20:54:40;7.75;;;2.67;;
27979;SDS011;15315;50.836;4.430;2022-08-19T21:04:40;7.75;;;3.00;;
27979;SDS011;15315;50.836;4.430;2022-08-19T21:14:41;9.18;;;3.10;;
27979;SDS011;15315;50.836;4.430;2022-08-19T21:24:42;7.00;;;3.92;;
27979;SDS011;15315;50.836;4.430;2022-08-19T21:34:42;9.38;;;3.63;;
27979;SDS011;15315;50.836;4.430;2022-08-19T21:44:43;7.30;;;3.85;;
27979;SDS011;15315;50.836;4.430;2022-08-19T21:54:44;10.05;;;5.50;;
27979;SDS011;15315;50.836;4.430;2022-08-19T22:04:44;10.55;;;4.57;;
27979;SDS011;15315;50.836;4.430;2022-08-19T22:14:45;6.88;;;4.75;;
27979;SDS011;15315;50.836;4.430;2022-08-19T22:24:45;7.40;;;4.90;;
27979;SDS011;15315;50.836;4.430;2022-08-19T22:34:46;8.93;;;4.60;;
27979;SDS011;15315;50.836;4.430;2022-08-19T22:44:46;7.43;;;5.25;;
27979;SDS011;15315;50.836;4.430;2022-08-19T22:54:49;12.20;;;6.00;;
27979;SDS011;15315;50.836;4.430;2022-08-19T23:04:51;11.50;;;6.47;;
27979;SDS011;15315;50.836;4.430;2022-08-19T23:14:52;7.32;;;5.35;;
27979;SDS011;15315;50.836;4.430;2022-08-19T23:24:52;11.23;;;6.20;;
27979;SDS011;15315;50.836;4.430;2022-08-19T23:34:54;10.55;;;6.13;;
27979;SDS011;15315;50.836;4.430;2022-08-19T23:44:59;12.40;;;6.78;;
27979;SDS011;15315;50.836;4.430;2022-08-19T23:55:05;13.70;;;8.38;;
